This is the latest recevied weather packets stored in our database for station/object KC4JES. If no packets are shown the sender has not sent any weather packets the latest 10 day(s).
| Time | Temp. | Humidity | Pressure | Rain* | Wind** | Luminosity | Snow |
|---|---|---|---|---|---|---|---|
| 1777595043 | 24.44° C | 89% | 1010 hPa | 16.76 mm | - | 0 W/m² | - |
| 1777594740 | 25° C | 86% | 1009.8 hPa | 7.87 mm | - | 0 W/m² | - |
| 1777594436 | 25° C | 83% | 1009.5 hPa | 0 mm | - | 0 W/m² | - |
| 1777594132 | 25° C | 82% | 1009.2 hPa | 0 mm | - | 0 W/m² | - |
| 1777593828 | 25° C | 82% | 1009.3 hPa | 0 mm | - | 0 W/m² | - |
| 1777593525 | 25° C | 82% | 1009 hPa | 0 mm | - | 1 W/m² | - |
| 1777593225 | 25.56° C | 82% | 1009 hPa | 0 mm | - | 3 W/m² | - |
| 1777592924 | 25.56° C | 81% | 1009 hPa | 0 mm | - | 4 W/m² | - |
| 1777592620 | 25.56° C | 80% | 1008.7 hPa | 0 mm | - | 6 W/m² | - |
| 1777592316 | 25.56° C | 80% | 1009 hPa | 0 mm | - | 11 W/m² | - |
| 1777592012 | 25.56° C | 79% | 1008.9 hPa | 0 mm | - | 14 W/m² | - |
| 1777591709 | 25.56° C | 79% | 1008.6 hPa | 0 mm | - | 17 W/m² | - |
| 1777591404 | 26.11° C | 78% | 1008.9 hPa | 0 mm | - | 20 W/m² | - |
| 1777591101 | 26.11° C | 77% | 1009 hPa | 0 mm | - | 21 W/m² | - |
| 1777590796 | 26.11° C | 76% | 1009.1 hPa | 0 mm | - | 30 W/m² | - |
| 1777590492 | 26.67° C | 75% | 1008.8 hPa | 0 mm | - | 36 W/m² | - |
| 1777590189 | 26.67° C | 76% | 1008.9 hPa | 0 mm | - | 56 W/m² | - |
| 1777589886 | 26.11° C | 76% | 1008.6 hPa | 0 mm | - | 30 W/m² | - |
| 1777589581 | 26.67° C | 75% | 1008.9 hPa | 0 mm | - | 39 W/m² | - |
| 1777589279 | 26.67° C | 74% | 1008.8 hPa | 0 mm | - | 39 W/m² | - |
| 1777588976 | 26.67° C | 73% | 1008.9 hPa | 0 mm | - | 44 W/m² | - |
| 1777588672 | 26.67° C | 72% | 1008.9 hPa | 0 mm | - | 42 W/m² | - |
| 1777588367 | 27.22° C | 71% | 1008.7 hPa | 0 mm | - | 58 W/m² | - |
| 1777588064 | 27.22° C | 69% | 1008.5 hPa | 0 mm | - | 53 W/m² | - |
| 1777587760 | 27.78° C | 70% | 1008.8 hPa | 0 mm | - | 54 W/m² | - |
* Rain latest hour (hover to see other rain measurements)
** Current wind speed in m/s (hover to see current wind gust speed)